Darstellungsparameter: Aktuell verwendete Einstellungen:
Skalierung der Graphiken ... ?
xyx+y,   Skalierungsfaktor:      Skalierung: Modus: x, Faktor: 1
Darstellungszeitraum ... ?
Vom - - bis: - -   Zeitraum: 24.09.2005 - 24.09.2005
Min/Max/Avg-Anzeige ... ?
Zeige MMA aktuell
Zeige MMA Monat
Zeige MMA alles
Zeige --A aktuell
Zeige --A Monat
Zeige --A alles
Keine MMA-Anzeige
MMA:
Average (ber die Originaldaten)
MMA-Basis: 24.09.2005 - 24.09.2005
Quicknavigation für Darstellung... ?
Tage:      1T, 2T, 3T, 5T -1T -2T -3T -5T +1T +2T +3T +5T
Wochen: 1W, 2W, 3W -1W -2W -3W +1W +2W +3W
Monate: 1M, 3M, 6M -1M -3M -6M +1M +3M +6M
Jahre:    1J, 3J, 5J, 10J -1J -3J -5J -10J +1J +3J +5J +10J
Nutze für die Darstellung ... ?
Originaldaten oder Mittelwerte auf ...
Stundenbasis Tagesbasis Wochenbasis
Monatsbasis Jahresbasis      Datenbasis: Original-Daten
Darstellen als:
Statistik (Auto) Statistik J:M      Darstellung:
Zur Graphik,    zurück zur Übersicht aller Sensoren.
 
Tabellarische Datenbersicht: ?
 
Sensor: Nr:Datum:Temp:Abs-Feuchte:Windchill:Wind:
Aussen-T/F 1 24-09-2005 00:08:02 13.4 C 8.95 g/m*3 13.4 C 0 km/h
2 24-09-2005 00:20:03 13.1 C 8.9 g/m*3 13.1 C 0 km/h
3 24-09-2005 00:32:02 12.8 C 8.74 g/m*3 12.8 C 0 km/h
4 24-09-2005 00:44:02 12.8 C 8.85 g/m*3 12.8 C 0 km/h
5 24-09-2005 00:56:02 12.8 C 8.85 g/m*3 12.8 C 0 km/h
6 24-09-2005 01:08:02 12.5 C 8.69 g/m*3 12.5 C 0 km/h
7 24-09-2005 01:20:02 12.4 C 8.74 g/m*3 12.4 C 0 km/h
8 24-09-2005 01:32:02 12.1 C 8.69 g/m*3 12.1 C 0 km/h
9 24-09-2005 01:44:02 11.9 C 8.58 g/m*3 11.9 C 0 km/h
10 24-09-2005 01:56:03 11.9 C 8.68 g/m*3 11.9 C 0 km/h
11 24-09-2005 02:08:03 11.8 C 8.74 g/m*3 11.8 C 0 km/h
12 24-09-2005 02:20:03 11.8 C 8.84 g/m*3 11.8 C 0 km/h
13 24-09-2005 02:32:02 11.7 C 8.79 g/m*3 11.7 C 0 km/h
14 24-09-2005 02:44:02 11.5 C 8.57 g/m*3 11.5 C 0 km/h
15 24-09-2005 02:57:04 11.4 C 8.62 g/m*3 11.4 C 0 km/h
16 24-09-2005 03:09:04 11.1 C 8.46 g/m*3 11.1 C 0 km/h
17 24-09-2005 03:21:04 11 C 8.51 g/m*3 11 C 0 km/h
18 24-09-2005 03:33:03 10.8 C 8.4 g/m*3 10.8 C 0 km/h
19 24-09-2005 03:45:03 10.9 C 8.55 g/m*3 10.9 C 0 km/h
20 24-09-2005 03:57:03 10.7 C 8.45 g/m*3 10.7 C 0 km/h
21 24-09-2005 04:09:03 10.5 C 8.34 g/m*3 10.5 C 0 km/h
22 24-09-2005 04:21:03 10.5 C 8.44 g/m*3 10.5 C 0 km/h
23 24-09-2005 04:33:03 10.5 C 8.44 g/m*3 10.5 C 0 km/h
24 24-09-2005 04:45:03 10.4 C 8.38 g/m*3 10.4 C 0 km/h
25 24-09-2005 04:57:03 10.4 C 8.38 g/m*3 10.4 C 0 km/h
Sensor: Nr:Datum:Temp:Abs-Feuchte:Windchill:Wind:
Aussen-T/F 26 24-09-2005 05:09:03 10.4 C 8.38 g/m*3 10.4 C 0 km/h
27 24-09-2005 05:21:02 10.2 C 8.28 g/m*3 10.2 C 0 km/h
28 24-09-2005 05:33:02 10.2 C 8.37 g/m*3 10.2 C 0 km/h
29 24-09-2005 05:45:01 10.1 C 8.23 g/m*3 10.1 C 0 km/h
30 24-09-2005 05:57:01 10 C 8.27 g/m*3 10 C 0 km/h
31 24-09-2005 06:09:02 10 C 8.27 g/m*3 10 C 0 km/h
32 24-09-2005 06:21:02 9.9 C 8.31 g/m*3 9.9 C 0 km/h
33 24-09-2005 06:33:02 9.8 C 8.26 g/m*3 9.8 C 0 km/h
34 24-09-2005 06:45:02 9.7 C 8.2 g/m*3 9.7 C 0 km/h
35 24-09-2005 06:57:02 9.7 C 8.2 g/m*3 9.7 C 0 km/h
36 24-09-2005 07:09:02 9.9 C 8.4 g/m*3 9.9 C 0 km/h
37 24-09-2005 07:21:02 10 C 8.27 g/m*3 10 C 0 km/h
38 24-09-2005 07:33:02 10.3 C 8.43 g/m*3 10.3 C 0 km/h
39 24-09-2005 07:45:02 10.5 C 8.44 g/m*3 10.5 C 0 km/h
40 24-09-2005 07:57:02 10.6 C 8.49 g/m*3 10.6 C 0 km/h
41 24-09-2005 08:09:02 10.7 C 8.45 g/m*3 10.7 C 0 km/h
42 24-09-2005 08:21:02 10.8 C 8.5 g/m*3 10.8 C 0 km/h
43 24-09-2005 08:33:02 11.1 C 8.56 g/m*3 11.1 C 0 km/h
44 24-09-2005 08:45:02 11.5 C 8.68 g/m*3 11.5 C 0 km/h
45 24-09-2005 08:57:02 11.7 C 8.68 g/m*3 11.7 C 0 km/h
46 24-09-2005 09:09:02 11.8 C 8.74 g/m*3 11.8 C 0 km/h
47 24-09-2005 09:21:02 12.1 C 8.79 g/m*3 12.1 C 0 km/h
48 24-09-2005 09:33:02 12.5 C 8.8 g/m*3 12.5 C 0 km/h
49 24-09-2005 09:45:02 12.5 C 8.58 g/m*3 12.5 C 0 km/h
50 24-09-2005 09:57:02 12.4 C 8.63 g/m*3 12.4 C 0 km/h
Sensor: Nr:Datum:Temp:Abs-Feuchte:Windchill:Wind:
Aussen-T/F 51 24-09-2005 10:09:02 12.4 C 8.85 g/m*3 12.4 C 0 km/h
52 24-09-2005 10:21:01 12.7 C 9.02 g/m*3 12.7 C 0 km/h
53 24-09-2005 10:33:02 13.4 C 9.07 g/m*3 13.4 C 0 km/h
54 24-09-2005 10:45:02 14.3 C 8.97 g/m*3 14.3 C 0 km/h
55 24-09-2005 10:57:02 15 C 8.98 g/m*3 15 C 0 km/h
56 24-09-2005 11:09:02 15.2 C 8.83 g/m*3 15.2 C 0 km/h
57 24-09-2005 11:21:03 15.1 C 8.9 g/m*3 15.1 C 0 km/h
58 24-09-2005 11:33:02 15.5 C 9.25 g/m*3 15.5 C 0 km/h
59 24-09-2005 11:45:02 15.8 C 9.29 g/m*3 15.8 C 0 km/h
60 24-09-2005 11:57:02 16.6 C 9.61 g/m*3 16.6 C 0 km/h
61 24-09-2005 12:09:02 17.1 C 9.75 g/m*3 17.1 C 0 km/h
62 24-09-2005 12:21:02 17.6 C 10.05 g/m*3 17.6 C 0 km/h
63 24-09-2005 12:33:02 18.1 C 10.04 g/m*3 18.1 C 0 km/h
64 24-09-2005 12:45:02 18.7 C 10.09 g/m*3 18.7 C 0 km/h
65 24-09-2005 12:57:02 18.8 C 10.31 g/m*3 18.8 C 0 km/h
66 24-09-2005 13:09:02 19.3 C 10.12 g/m*3 19.3 C 0 km/h
67 24-09-2005 13:21:02 20 C 10.02 g/m*3 20 C 0 km/h
68 24-09-2005 13:33:02 20.6 C 10.02 g/m*3 20.6 C 0 km/h
69 24-09-2005 13:45:02 21.3 C 10.07 g/m*3 21.3 C 0 km/h
70 24-09-2005 13:57:02 21.7 C 10.11 g/m*3 21.7 C 0 km/h
71 24-09-2005 14:09:02 22.1 C 9.76 g/m*3 22.1 C 0 km/h
72 24-09-2005 14:21:02 22.2 C 9.42 g/m*3 22.2 C 0 km/h
73 24-09-2005 14:33:02 22.6 C 9.64 g/m*3 22.6 C 0 km/h
74 24-09-2005 14:45:02 23.4 C 9.46 g/m*3 23.4 C 0 km/h
75 24-09-2005 14:57:02 23 C 9.04 g/m*3 23 C 0 km/h
Sensor: Nr:Datum:Temp:Abs-Feuchte:Windchill:Wind:
Aussen-T/F 76 24-09-2005 15:09:02 22.3 C 9.87 g/m*3 22.3 C 0 km/h
77 24-09-2005 15:21:02 22.1 C 10.15 g/m*3 22.1 C 0 km/h
78 24-09-2005 15:33:02 22 C 10.09 g/m*3 22 C 0 km/h
79 24-09-2005 15:45:02 23.2 C 9.77 g/m*3 23.2 C 0 km/h
80 24-09-2005 15:57:02 23.3 C 9.2 g/m*3 23.3 C 0 km/h
81 24-09-2005 16:09:03 24.1 C 9.41 g/m*3 24.1 C 0 km/h
82 24-09-2005 16:21:02 24.5 C 9.18 g/m*3 24.5 C 0 km/h
83 24-09-2005 16:33:02 24.7 C 9.28 g/m*3 24.7 C 0 km/h
84 24-09-2005 16:45:02 24.2 C 9.68 g/m*3 24.2 C 0 km/h
85 24-09-2005 16:57:02 23.6 C 9.78 g/m*3 23.6 C 0 km/h
86 24-09-2005 17:09:02 23.3 C 9.83 g/m*3 23.3 C 0 km/h
87 24-09-2005 17:21:02 22.8 C 9.96 g/m*3 22.8 C 0 km/h
88 24-09-2005 17:33:02 22.9 C 10.01 g/m*3 22.9 C 0 km/h
89 24-09-2005 17:45:02 23.1 C 9.92 g/m*3 23.1 C 0 km/h
90 24-09-2005 17:57:02 22.7 C 9.9 g/m*3 22.7 C 0 km/h
91 24-09-2005 18:09:02 22.2 C 9.82 g/m*3 22.2 C 0 km/h
92 24-09-2005 18:21:02 22.3 C 10.07 g/m*3 22.3 C 0 km/h
93 24-09-2005 18:33:02 22 C 9.9 g/m*3 22 C 0 km/h
94 24-09-2005 18:45:02 21.7 C 10.11 g/m*3 21.7 C 0 km/h
95 24-09-2005 18:57:02 21 C 10.26 g/m*3 21 C 0 km/h
96 24-09-2005 19:09:02 20.3 C 10.38 g/m*3 20.3 C 0 km/h
97 24-09-2005 19:21:01 19.7 C 10.36 g/m*3 19.7 C 0 km/h
98 24-09-2005 19:33:02 19.3 C 10.28 g/m*3 19.3 C 0 km/h
99 24-09-2005 19:45:02 18.8 C 10.47 g/m*3 18.8 C 0 km/h
100 24-09-2005 19:57:02 18.5 C 10.44 g/m*3 18.5 C 0 km/h
Sensor: Nr:Datum:Temp:Abs-Feuchte:Windchill:Wind:
Aussen-T/F 101 24-09-2005 20:09:01 18.3 C 10.32 g/m*3 18.3 C 0 km/h
102 24-09-2005 20:21:02 18.4 C 10.22 g/m*3 18.4 C 0 km/h
103 24-09-2005 20:33:02 18.3 C 10.32 g/m*3 18.3 C 0 km/h
104 24-09-2005 20:45:02 18 C 10.14 g/m*3 18 C 0 km/h
105 24-09-2005 20:57:02 17.9 C 10.38 g/m*3 17.9 C 0 km/h
106 24-09-2005 21:09:02 17.9 C 10.54 g/m*3 17.9 C 0 km/h
107 24-09-2005 21:21:02 17.3 C 10.31 g/m*3 17.3 C 0 km/h
108 24-09-2005 21:33:02 17.1 C 10.19 g/m*3 17.1 C 0 km/h
109 24-09-2005 21:45:02 17.1 C 10.34 g/m*3 17.1 C 0 km/h
110 24-09-2005 21:57:02 17.1 C 10.34 g/m*3 17.1 C 0 km/h
111 24-09-2005 22:09:01 16.9 C 10.5 g/m*3 16.9 C 0 km/h
112 24-09-2005 22:21:02 16.9 C 10.5 g/m*3 16.9 C 0 km/h
113 24-09-2005 22:33:02 16.8 C 10.44 g/m*3 16.8 C 0 km/h
114 24-09-2005 22:45:02 16.9 C 10.64 g/m*3 16.9 C 0 km/h
115 24-09-2005 22:57:02 16.8 C 10.58 g/m*3 16.8 C 0 km/h
116 24-09-2005 23:09:02 16.8 C 10.58 g/m*3 16.8 C 0 km/h
117 24-09-2005 23:21:02 16.7 C 10.52 g/m*3 16.7 C 0 km/h
118 24-09-2005 23:33:02 16.6 C 10.59 g/m*3 16.6 C 0 km/h
119 24-09-2005 23:45:02 16.6 C 10.59 g/m*3 16.6 C 0 km/h
120 24-09-2005 23:57:02 16.5 C 10.53 g/m*3 16.5 C 0 km/h

Legende:
   Min
   Max


Maximal/Minimal-Werte vom 24.09.2005 - 24.09.2005

Sensor Min Max Avg
Temp
(Aussen-T/F)
9.7 °C
24-09-2005  06:45:02
24.7 °C
24-09-2005  16:33:02
15.93 °C
Abs-Feuchte
(Aussen-T/F)
8.2 g/m*3
24-09-2005  06:45:02
10.64 g/m*3
24-09-2005  22:45:02
9.27 g/m*3
Windchill
(Aussen-T/F)
9.7 C
24-09-2005  06:45:02
24.7 C
24-09-2005  16:33:02
15.79 C

Die Daten stammen von einer Davis Vantage Pro 2 Wetter-Station und werden unter Linux mit der Software wview2wettercgi und aufbereitet. Alle Angaben erfolgen ohne Gewähr für ihre Vollständigkeit oder Richtigkeit.
Kontakt: Rainer Krienke krienke@uni-koblenz.de . Meine Webseiten an der Uni Koblenz oder privat.
Version: $Revision: 0.78 $